KFYJ

Middle Peninsula Regional Airport

West Point, Virginia, USA
METAR KFYJ 231115Z AUTO 19004KT 10SM CLR 08/05 A3015 RMK AO1 T00750052
Observed Flight Rules
Oct-23 @ 11:15 UTC (34 minutes ago) Visual Flight Rules
Wind Visibility Clouds
190° at 4 knots 10 miles
  • Clear skies
Temperatures Readings
Current 8°C / 46°F
Dewpoint 5°C / 41°F
Humidity 82%
Altimeter 30.15" Hg
Pressure 1021 hPa
Elevation 7
METAR KFYJ 231115Z AUTO 19004KT 10SM CLR 08/05 A3015 RMK AO1 T00750052
Observed Flight Rules
Oct-23 @ 11:15 UTC
(34 minutes ago)
VFR
Wind Visibility
190° at 4 knots 10 miles
Clouds
  • Clear skies
Temperature Dewpoint
8°C / 46°F 5°C / 41°F
Humidity Altimeter Pressure
82% 30.15" Hg 1021 hPa